sensor_id;sensor_type;location;lat;lon;timestamp;pressure;altitude;pressure_sealevel;temperature
71630;BMP280;59479;51.902;8.212;2024-01-06T00:01:49;99580.25;;;8.64
71630;BMP280;59479;51.902;8.212;2024-01-06T00:04:14;99564.34;;;8.71
71630;BMP280;59479;51.902;8.212;2024-01-06T00:06:40;99566.06;;;8.63
71630;BMP280;59479;51.902;8.212;2024-01-06T00:09:05;99576.94;;;8.62
71630;BMP280;59479;51.902;8.212;2024-01-06T00:11:30;99575.28;;;8.63
71630;BMP280;59479;51.902;8.212;2024-01-06T00:13:56;99576.09;;;8.63
71630;BMP280;59479;51.902;8.212;2024-01-06T00:16:21;99573.59;;;8.62
71630;BMP280;59479;51.902;8.212;2024-01-06T00:18:47;99582.00;;;8.53
71630;BMP280;59479;51.902;8.212;2024-01-06T00:21:12;99586.19;;;8.56
71630;BMP280;59479;51.902;8.212;2024-01-06T00:23:40;99588.69;;;8.57
71630;BMP280;59479;51.902;8.212;2024-01-06T00:26:05;99586.97;;;8.62
71630;BMP280;59479;51.902;8.212;2024-01-06T00:28:30;99580.31;;;8.58
71630;BMP280;59479;51.902;8.212;2024-01-06T00:30:56;99584.53;;;8.53
71630;BMP280;59479;51.902;8.212;2024-01-06T00:33:21;99587.78;;;8.66
71630;BMP280;59479;51.902;8.212;2024-01-06T00:35:46;99588.56;;;8.69
71630;BMP280;59479;51.902;8.212;2024-01-06T00:38:12;99588.69;;;8.57
71630;BMP280;59479;51.902;8.212;2024-01-06T00:40:37;99595.31;;;8.63
71630;BMP280;59479;51.902;8.212;2024-01-06T00:43:03;99603.66;;;8.62
71630;BMP280;59479;51.902;8.212;2024-01-06T00:45:28;99600.34;;;8.55
71630;BMP280;59479;51.902;8.212;2024-01-06T00:47:53;99603.69;;;8.57
71630;BMP280;59479;51.902;8.212;2024-01-06T00:50:19;99607.03;;;8.59
71630;BMP280;59479;51.902;8.212;2024-01-06T00:52:44;99611.22;;;8.57
71630;BMP280;59479;51.902;8.212;2024-01-06T00:55:10;99616.97;;;8.65
71630;BMP280;59479;51.902;8.212;2024-01-06T00:57:36;99615.25;;;8.69
71630;BMP280;59479;51.902;8.212;2024-01-06T01:00:03;99612.75;;;8.72
71630;BMP280;59479;51.902;8.212;2024-01-06T01:02:28;99611.91;;;8.71
71630;BMP280;59479;51.902;8.212;2024-01-06T01:04:54;99613.63;;;8.69
71630;BMP280;59479;51.902;8.212;2024-01-06T01:07:19;99625.34;;;8.64
71630;BMP280;59479;51.902;8.212;2024-01-06T01:09:45;99636.19;;;8.63
71630;BMP280;59479;51.902;8.212;2024-01-06T01:12:10;99632.88;;;8.63
71630;BMP280;59479;51.902;8.212;2024-01-06T01:14:35;99637.84;;;8.67
71630;BMP280;59479;51.902;8.212;2024-01-06T01:17:01;99643.66;;;8.69
71630;BMP280;59479;51.902;8.212;2024-01-06T01:19:26;99644.50;;;8.68
71630;BMP280;59479;51.902;8.212;2024-01-06T01:21:51;99651.19;;;8.71
71630;BMP280;59479;51.902;8.212;2024-01-06T01:24:21;99651.09;;;8.77
71630;BMP280;59479;51.902;8.212;2024-01-06T01:26:46;99649.47;;;8.73
71630;BMP280;59479;51.902;8.212;2024-01-06T01:29:12;99646.13;;;8.72
71630;BMP280;59479;51.902;8.212;2024-01-06T01:31:37;99651.91;;;8.78
71630;BMP280;59479;51.902;8.212;2024-01-06T01:34:02;99656.09;;;8.81
71630;BMP280;59479;51.902;8.212;2024-01-06T01:36:28;99648.56;;;8.81
71630;BMP280;59479;51.902;8.212;2024-01-06T01:38:53;99651.91;;;8.81
71630;BMP280;59479;51.902;8.212;2024-01-06T01:41:18;99659.38;;;8.86
71630;BMP280;59479;51.902;8.212;2024-01-06T01:43:45;99664.41;;;8.83
71630;BMP280;59479;51.902;8.212;2024-01-06T01:46:10;99662.78;;;8.79
71630;BMP280;59479;51.902;8.212;2024-01-06T01:48:36;99660.22;;;8.83
71630;BMP280;59479;51.902;8.212;2024-01-06T01:51:02;99661.91;;;8.81
71630;BMP280;59479;51.902;8.212;2024-01-06T01:53:27;99653.63;;;8.77
71630;BMP280;59479;51.902;8.212;2024-01-06T01:55:53;99661.09;;;8.84
71630;BMP280;59479;51.902;8.212;2024-01-06T01:58:19;99661.09;;;8.79
71630;BMP280;59479;51.902;8.212;2024-01-06T02:00:44;99670.31;;;8.79
71630;BMP280;59479;51.902;8.212;2024-01-06T02:03:11;99663.59;;;8.81
71630;BMP280;59479;51.902;8.212;2024-01-06T02:05:38;99662.72;;;8.85
71630;BMP280;59479;51.902;8.212;2024-01-06T02:08:03;99664.41;;;8.86
71630;BMP280;59479;51.902;8.212;2024-01-06T02:10:29;99668.53;;;8.90
71630;BMP280;59479;51.902;8.212;2024-01-06T02:12:54;99676.94;;;8.86
71630;BMP280;59479;51.902;8.212;2024-01-06T02:15:20;99669.44;;;8.83
71630;BMP280;59479;51.902;8.212;2024-01-06T02:17:45;99676.09;;;8.85
71630;BMP280;59479;51.902;8.212;2024-01-06T02:20:11;99675.25;;;8.83
71630;BMP280;59479;51.902;8.212;2024-01-06T02:22:38;99674.44;;;8.84
71630;BMP280;59479;51.902;8.212;2024-01-06T02:25:05;99676.06;;;8.87
71630;BMP280;59479;51.902;8.212;2024-01-06T02:27:37;99682.78;;;8.85
71630;BMP280;59479;51.902;8.212;2024-01-06T02:30:02;99679.41;;;8.89
71630;BMP280;59479;51.902;8.212;2024-01-06T02:32:28;99681.88;;;8.90
71630;BMP280;59479;51.902;8.212;2024-01-06T02:34:53;99676.94;;;8.86
71630;BMP280;59479;51.902;8.212;2024-01-06T02:37:18;99687.75;;;8.89
71630;BMP280;59479;51.902;8.212;2024-01-06T02:39:44;99686.88;;;8.90
71630;BMP280;59479;51.902;8.212;2024-01-06T02:42:09;99680.25;;;8.88
71630;BMP280;59479;51.902;8.212;2024-01-06T02:44:34;99684.44;;;8.87
71630;BMP280;59479;51.902;8.212;2024-01-06T02:47:00;99686.13;;;8.85
71630;BMP280;59479;51.902;8.212;2024-01-06T02:49:25;99692.78;;;8.86
71630;BMP280;59479;51.902;8.212;2024-01-06T02:51:50;99696.97;;;8.86
71630;BMP280;59479;51.902;8.212;2024-01-06T02:54:16;99705.34;;;8.82
71630;BMP280;59479;51.902;8.212;2024-01-06T02:56:41;99708.63;;;8.87
71630;BMP280;59479;51.902;8.212;2024-01-06T02:59:06;99703.69;;;8.82
71630;BMP280;59479;51.902;8.212;2024-01-06T03:01:32;99712.91;;;8.79
71630;BMP280;59479;51.902;8.212;2024-01-06T03:03:57;99711.19;;;8.81
71630;BMP280;59479;51.902;8.212;2024-01-06T03:06:23;99715.34;;;8.82
71630;BMP280;59479;51.902;8.212;2024-01-06T03:08:48;99717.03;;;8.80
71630;BMP280;59479;51.902;8.212;2024-01-06T03:11:13;99728.75;;;8.78
71630;BMP280;59479;51.902;8.212;2024-01-06T03:13:39;99725.44;;;8.73
71630;BMP280;59479;51.902;8.212;2024-01-06T03:16:05;99725.41;;;8.79
71630;BMP280;59479;51.902;8.212;2024-01-06T03:18:30;99724.59;;;8.76
71630;BMP280;59479;51.902;8.212;2024-01-06T03:20:56;99723.75;;;8.75
71630;BMP280;59479;51.902;8.212;2024-01-06T03:23:21;99723.75;;;8.78
71630;BMP280;59479;51.902;8.212;2024-01-06T03:25:46;99729.63;;;8.74
71630;BMP280;59479;51.902;8.212;2024-01-06T03:28:11;99732.16;;;8.71
71630;BMP280;59479;51.902;8.212;2024-01-06T03:30:37;99743.81;;;8.74
71630;BMP280;59479;51.902;8.212;2024-01-06T03:33:02;99741.34;;;8.71
71630;BMP280;59479;51.902;8.212;2024-01-06T03:35:28;99735.47;;;8.73
71630;BMP280;59479;51.902;8.212;2024-01-06T03:37:53;99742.19;;;8.68
71630;BMP280;59479;51.902;8.212;2024-01-06T03:40:18;99736.34;;;8.66
71630;BMP280;59479;51.902;8.212;2024-01-06T03:42:44;99738.81;;;8.72
71630;BMP280;59479;51.902;8.212;2024-01-06T03:45:09;99744.69;;;8.67
71630;BMP280;59479;51.902;8.212;2024-01-06T03:47:34;99746.38;;;8.68
71630;BMP280;59479;51.902;8.212;2024-01-06T03:50:00;99758.09;;;8.63
71630;BMP280;59479;51.902;8.212;2024-01-06T03:52:26;99752.25;;;8.62
71630;BMP280;59479;51.902;8.212;2024-01-06T03:54:51;99752.25;;;8.61
71630;BMP280;59479;51.902;8.212;2024-01-06T03:57:16;99754.78;;;8.58
71630;BMP280;59479;51.902;8.212;2024-01-06T03:59:42;99762.31;;;8.53
71630;BMP280;59479;51.902;8.212;2024-01-06T04:02:07;99769.00;;;8.48
71630;BMP280;59479;51.902;8.212;2024-01-06T04:04:33;99769.88;;;8.46
71630;BMP280;59479;51.902;8.212;2024-01-06T04:06:58;99766.50;;;8.51
71630;BMP280;59479;51.902;8.212;2024-01-06T04:09:23;99772.28;;;8.61
71630;BMP280;59479;51.902;8.212;2024-01-06T04:11:49;99773.19;;;8.48
71630;BMP280;59479;51.902;8.212;2024-01-06T04:14:14;99780.72;;;8.40
71630;BMP280;59479;51.902;8.212;2024-01-06T04:16:39;99773.22;;;8.42
71630;BMP280;59479;51.902;8.212;2024-01-06T04:19:05;99786.56;;;8.44
71630;BMP280;59479;51.902;8.212;2024-01-06T04:21:32;99778.19;;;8.49
71630;BMP280;59479;51.902;8.212;2024-01-06T04:23:57;99782.44;;;8.36
71630;BMP280;59479;51.902;8.212;2024-01-06T04:26:23;99786.59;;;8.37
71630;BMP280;59479;51.902;8.212;2024-01-06T04:28:48;99788.31;;;8.26
71630;BMP280;59479;51.902;8.212;2024-01-06T04:31:13;99789.16;;;8.25
71630;BMP280;59479;51.902;8.212;2024-01-06T04:33:39;99782.50;;;8.22
71630;BMP280;59479;51.902;8.212;2024-01-06T04:36:06;99784.16;;;8.26
71630;BMP280;59479;51.902;8.212;2024-01-06T04:38:32;99795.84;;;8.26
71630;BMP280;59479;51.902;8.212;2024-01-06T04:40:57;99798.31;;;8.29
71630;BMP280;59479;51.902;8.212;2024-01-06T04:43:23;99799.97;;;8.31
71630;BMP280;59479;51.902;8.212;2024-01-06T04:45:48;99808.31;;;8.35
71630;BMP280;59479;51.902;8.212;2024-01-06T04:48:15;99804.97;;;8.31
71630;BMP280;59479;51.902;8.212;2024-01-06T04:50:40;99806.63;;;8.34
71630;BMP280;59479;51.902;8.212;2024-01-06T04:53:06;99813.31;;;8.36
71630;BMP280;59479;51.902;8.212;2024-01-06T04:55:31;99812.47;;;8.36
71630;BMP280;59479;51.902;8.212;2024-01-06T04:57:56;99825.78;;;8.40
71630;BMP280;59479;51.902;8.212;2024-01-06T05:00:22;99822.50;;;8.36
71630;BMP280;59479;51.902;8.212;2024-01-06T05:02:47;99829.19;;;8.28
71630;BMP280;59479;51.902;8.212;2024-01-06T05:05:12;99824.19;;;8.28
71630;BMP280;59479;51.902;8.212;2024-01-06T05:07:38;99825.00;;;8.33
71630;BMP280;59479;51.902;8.212;2024-01-06T05:10:03;99829.19;;;8.25
71630;BMP280;59479;51.902;8.212;2024-01-06T05:12:29;99835.88;;;8.17
71630;BMP280;59479;51.902;8.212;2024-01-06T05:14:54;99833.38;;;8.15
71630;BMP280;59479;51.902;8.212;2024-01-06T05:17:19;99835.88;;;8.17
71630;BMP280;59479;51.902;8.212;2024-01-06T05:19:45;99832.56;;;8.18
71630;BMP280;59479;51.902;8.212;2024-01-06T05:22:10;99841.75;;;8.14
71630;BMP280;59479;51.902;8.212;2024-01-06T05:24:36;99837.56;;;8.13
71630;BMP280;59479;51.902;8.212;2024-01-06T05:27:01;99857.56;;;8.09
71630;BMP280;59479;51.902;8.212;2024-01-06T05:29:26;99860.09;;;8.03
71630;BMP280;59479;51.902;8.212;2024-01-06T05:31:52;99846.75;;;7.99
71630;BMP280;59479;51.902;8.212;2024-01-06T05:34:17;99850.94;;;7.99
71630;BMP280;59479;51.902;8.212;2024-01-06T05:36:43;99858.41;;;8.03
71630;BMP280;59479;51.902;8.212;2024-01-06T05:39:08;99859.28;;;7.98
71630;BMP280;59479;51.902;8.212;2024-01-06T05:41:40;99871.78;;;7.95
71630;BMP280;59479;51.902;8.212;2024-01-06T05:44:06;99865.94;;;7.96
71630;BMP280;59479;51.902;8.212;2024-01-06T05:46:33;99885.97;;;7.84
71630;BMP280;59479;51.902;8.212;2024-01-06T05:48:58;99885.16;;;7.79
71630;BMP280;59479;51.902;8.212;2024-01-06T05:51:25;99886.81;;;7.70
71630;BMP280;59479;51.902;8.212;2024-01-06T05:53:50;99895.97;;;7.77
71630;BMP280;59479;51.902;8.212;2024-01-06T05:56:22;99897.63;;;7.82
71630;BMP280;59479;51.902;8.212;2024-01-06T05:58:49;99907.66;;;7.75
71630;BMP280;59479;51.902;8.212;2024-01-06T06:01:15;99905.16;;;7.66
71630;BMP280;59479;51.902;8.212;2024-01-06T06:03:40;99913.50;;;7.69
71630;BMP280;59479;51.902;8.212;2024-01-06T06:06:06;99916.81;;;7.53
71630;BMP280;59479;51.902;8.212;2024-01-06T06:08:31;99910.97;;;7.60
71630;BMP280;59479;51.902;8.212;2024-01-06T06:10:56;99915.97;;;7.65
71630;BMP280;59479;51.902;8.212;2024-01-06T06:13:27;99920.13;;;7.69
71630;BMP280;59479;51.902;8.212;2024-01-06T06:15:53;99915.16;;;7.69
71630;BMP280;59479;51.902;8.212;2024-01-06T06:18:18;99927.66;;;7.73
71630;BMP280;59479;51.902;8.212;2024-01-06T06:20:43;99931.81;;;7.70
71630;BMP280;59479;51.902;8.212;2024-01-06T06:23:09;99927.66;;;7.73
71630;BMP280;59479;51.902;8.212;2024-01-06T06:25:38;99934.31;;;7.68
71630;BMP280;59479;51.902;8.212;2024-01-06T06:28:03;99935.16;;;7.60
71630;BMP280;59479;51.902;8.212;2024-01-06T06:30:28;99940.16;;;7.70
71630;BMP280;59479;51.902;8.212;2024-01-06T06:32:54;99942.66;;;7.70
71630;BMP280;59479;51.902;8.212;2024-01-06T06:35:19;99946.81;;;7.79
71630;BMP280;59479;51.902;8.212;2024-01-06T06:37:44;99954.34;;;7.74
71630;BMP280;59479;51.902;8.212;2024-01-06T06:40:10;99956.84;;;7.68
71630;BMP280;59479;51.902;8.212;2024-01-06T06:42:35;99970.97;;;7.60
71630;BMP280;59479;51.902;8.212;2024-01-06T06:45:01;99972.66;;;7.58
71630;BMP280;59479;51.902;8.212;2024-01-06T06:47:26;99971.81;;;7.58
71630;BMP280;59479;51.902;8.212;2024-01-06T06:49:51;99978.47;;;7.52
71630;BMP280;59479;51.902;8.212;2024-01-06T06:52:17;99975.13;;;7.47
71630;BMP280;59479;51.902;8.212;2024-01-06T06:54:42;99986.81;;;7.45
71630;BMP280;59479;51.902;8.212;2024-01-06T06:57:07;99983.47;;;7.44
71630;BMP280;59479;51.902;8.212;2024-01-06T06:59:33;99995.16;;;7.51
71630;BMP280;59479;51.902;8.212;2024-01-06T07:01:58;99995.97;;;7.47
71630;BMP280;59479;51.902;8.212;2024-01-06T07:04:24;99990.94;;;7.35
71630;BMP280;59479;51.902;8.212;2024-01-06T07:06:51;99995.97;;;7.40
71630;BMP280;59479;51.902;8.212;2024-01-06T07:09:16;100000.13;;;7.38
71630;BMP280;59479;51.902;8.212;2024-01-06T07:11:42;100007.59;;;7.35
71630;BMP280;59479;51.902;8.212;2024-01-06T07:14:07;100012.56;;;7.29
71630;BMP280;59479;51.902;8.212;2024-01-06T07:16:32;100018.41;;;7.23
71630;BMP280;59479;51.902;8.212;2024-01-06T07:18:58;100026.72;;;7.25
71630;BMP280;59479;51.902;8.212;2024-01-06T07:21:23;100030.91;;;7.34
71630;BMP280;59479;51.902;8.212;2024-01-06T07:23:48;100035.09;;;7.32
71630;BMP280;59479;51.902;8.212;2024-01-06T07:26:13;100040.06;;;7.24
71630;BMP280;59479;51.902;8.212;2024-01-06T07:28:39;100043.38;;;7.25
71630;BMP280;59479;51.902;8.212;2024-01-06T07:31:04;100044.22;;;7.27
71630;BMP280;59479;51.902;8.212;2024-01-06T07:33:30;100050.00;;;7.17
71630;BMP280;59479;51.902;8.212;2024-01-06T07:35:55;100058.31;;;7.10
71630;BMP280;59479;51.902;8.212;2024-01-06T07:38:20;100059.16;;;7.13
71630;BMP280;59479;51.902;8.212;2024-01-06T07:40:46;100059.22;;;7.22
71630;BMP280;59479;51.902;8.212;2024-01-06T07:43:11;100060.88;;;7.22
71630;BMP280;59479;51.902;8.212;2024-01-06T07:45:36;100069.22;;;7.27
71630;BMP280;59479;51.902;8.212;2024-01-06T07:48:02;100070.88;;;7.22
71630;BMP280;59479;51.902;8.212;2024-01-06T07:50:28;100078.34;;;7.16
71630;BMP280;59479;51.902;8.212;2024-01-06T07:52:54;100084.19;;;7.24
71630;BMP280;59479;51.902;8.212;2024-01-06T07:55:19;100085.06;;;7.27
71630;BMP280;59479;51.902;8.212;2024-01-06T07:57:45;100086.69;;;7.18
71630;BMP280;59479;51.902;8.212;2024-01-06T08:00:11;100091.66;;;7.13
71630;BMP280;59479;51.902;8.212;2024-01-06T08:02:40;100093.34;;;7.17
71630;BMP280;59479;51.902;8.212;2024-01-06T08:05:06;100103.38;;;7.26
71630;BMP280;59479;51.902;8.212;2024-01-06T08:07:32;100105.91;;;7.29
71630;BMP280;59479;51.902;8.212;2024-01-06T08:09:58;100106.72;;;7.22
71630;BMP280;59479;51.902;8.212;2024-01-06T08:12:23;100104.19;;;7.19
71630;BMP280;59479;51.902;8.212;2024-01-06T08:14:49;100122.50;;;7.20
71630;BMP280;59479;51.902;8.212;2024-01-06T08:17:14;100124.06;;;7.03
71630;BMP280;59479;51.902;8.212;2024-01-06T08:19:39;100122.38;;;7.02
71630;BMP280;59479;51.902;8.212;2024-01-06T08:22:05;100127.34;;;6.93
71630;BMP280;59479;51.902;8.212;2024-01-06T08:24:30;100138.16;;;6.92
71630;BMP280;59479;51.902;8.212;2024-01-06T08:26:55;100134.78;;;6.87
71630;BMP280;59479;51.902;8.212;2024-01-06T08:29:21;100143.19;;;6.98
71630;BMP280;59479;51.902;8.212;2024-01-06T08:31:46;100155.63;;;6.92
71630;BMP280;59479;51.902;8.212;2024-01-06T08:34:12;100164.81;;;6.95
71630;BMP280;59479;51.902;8.212;2024-01-06T08:36:38;100161.50;;;6.96
71630;BMP280;59479;51.902;8.212;2024-01-06T08:39:03;100169.78;;;6.90
71630;BMP280;59479;51.902;8.212;2024-01-06T08:41:29;100166.38;;;6.78
71630;BMP280;59479;51.902;8.212;2024-01-06T08:43:54;100171.34;;;6.75
71630;BMP280;59479;51.902;8.212;2024-01-06T08:46:19;100176.38;;;6.81
71630;BMP280;59479;51.902;8.212;2024-01-06T08:48:45;100176.38;;;6.84
71630;BMP280;59479;51.902;8.212;2024-01-06T08:51:10;100188.13;;;6.91
71630;BMP280;59479;51.902;8.212;2024-01-06T08:53:35;100188.97;;;6.93
71630;BMP280;59479;51.902;8.212;2024-01-06T08:56:01;100198.13;;;6.97
71630;BMP280;59479;51.902;8.212;2024-01-06T08:58:26;100194.00;;;7.00
71630;BMP280;59479;51.902;8.212;2024-01-06T09:00:52;100207.31;;;6.98
71630;BMP280;59479;51.902;8.212;2024-01-06T09:03:18;100206.44;;;6.91
71630;BMP280;59479;51.902;8.212;2024-01-06T09:05:51;100216.34;;;6.85
71630;BMP280;59479;51.902;8.212;2024-01-06T09:08:16;100211.41;;;6.88
71630;BMP280;59479;51.902;8.212;2024-01-06T09:10:42;100220.50;;;6.83
71630;BMP280;59479;51.902;8.212;2024-01-06T09:13:08;100227.22;;;6.90
71630;BMP280;59479;51.902;8.212;2024-01-06T09:15:33;100229.66;;;6.81
71630;BMP280;59479;51.902;8.212;2024-01-06T09:17:59;100231.41;;;6.90
71630;BMP280;59479;51.902;8.212;2024-01-06T09:20:24;100238.03;;;6.88
71630;BMP280;59479;51.902;8.212;2024-01-06T09:22:49;100238.75;;;6.73
71630;BMP280;59479;51.902;8.212;2024-01-06T09:25:15;100237.97;;;6.77
71630;BMP280;59479;51.902;8.212;2024-01-06T09:27:40;100247.94;;;6.80
71630;BMP280;59479;51.902;8.212;2024-01-06T09:30:06;100252.00;;;6.67
71630;BMP280;59479;51.902;8.212;2024-01-06T09:32:33;100257.88;;;6.71
71630;BMP280;59479;51.902;8.212;2024-01-06T09:34:58;100266.16;;;6.69
71630;BMP280;59479;51.902;8.212;2024-01-06T09:37:24;100263.66;;;6.70
71630;BMP280;59479;51.902;8.212;2024-01-06T09:39:49;100271.94;;;6.65
71630;BMP280;59479;51.902;8.212;2024-01-06T09:42:14;100275.22;;;6.60
71630;BMP280;59479;51.902;8.212;2024-01-06T09:44:40;100269.44;;;6.64
71630;BMP280;59479;51.902;8.212;2024-01-06T09:47:05;100275.34;;;6.71
71630;BMP280;59479;51.902;8.212;2024-01-06T09:49:32;100274.47;;;6.67
71630;BMP280;59479;51.902;8.212;2024-01-06T09:52:00;100284.53;;;6.72
71630;BMP280;59479;51.902;8.212;2024-01-06T09:54:30;100286.13;;;6.66
71630;BMP280;59479;51.902;8.212;2024-01-06T09:57:00;100282.81;;;6.68
71630;BMP280;59479;51.902;8.212;2024-01-06T09:59:27;100293.56;;;6.62
71630;BMP280;59479;51.902;8.212;2024-01-06T10:01:55;100285.22;;;6.60
71630;BMP280;59479;51.902;8.212;2024-01-06T10:04:21;100283.69;;;6.73
71630;BMP280;59479;51.902;8.212;2024-01-06T10:06:46;100285.41;;;6.77
71630;BMP280;59479;51.902;8.212;2024-01-06T10:09:12;100293.56;;;6.62
71630;BMP280;59479;51.902;8.212;2024-01-06T10:11:37;100293.63;;;6.68
71630;BMP280;59479;51.902;8.212;2024-01-06T10:14:06;100291.97;;;6.69
71630;BMP280;59479;51.902;8.212;2024-01-06T10:16:33;100306.88;;;6.64
71630;BMP280;59479;51.902;8.212;2024-01-06T10:19:00;100292.03;;;6.72
71630;BMP280;59479;51.902;8.212;2024-01-06T10:21:25;100303.63;;;6.70
71630;BMP280;59479;51.902;8.212;2024-01-06T10:23:51;100305.38;;;6.76
71630;BMP280;59479;51.902;8.212;2024-01-06T10:26:18;100302.06;;;6.78
71630;BMP280;59479;51.902;8.212;2024-01-06T10:28:44;100302.88;;;6.76
71630;BMP280;59479;51.902;8.212;2024-01-06T10:31:09;100308.63;;;6.70
71630;BMP280;59479;51.902;8.212;2024-01-06T10:33:35;100297.00;;;6.74
71630;BMP280;59479;51.902;8.212;2024-01-06T10:36:01;100309.50;;;6.74
71630;BMP280;59479;51.902;8.212;2024-01-06T10:38:46;100310.25;;;6.67
71630;BMP280;59479;51.902;8.212;2024-01-06T10:41:12;100317.69;;;6.61
71630;BMP280;59479;51.902;8.212;2024-01-06T10:43:38;100320.19;;;6.61
71630;BMP280;59479;51.902;8.212;2024-01-06T10:46:06;100328.47;;;6.59
71630;BMP280;59479;51.902;8.212;2024-01-06T10:48:36;100327.72;;;6.63
71630;BMP280;59479;51.902;8.212;2024-01-06T10:51:08;100326.09;;;6.68
71630;BMP280;59479;51.902;8.212;2024-01-06T10:53:37;100335.97;;;6.59
71630;BMP280;59479;51.902;8.212;2024-01-06T10:56:05;100329.38;;;6.65
71630;BMP280;59479;51.902;8.212;2024-01-06T10:58:34;100338.47;;;6.59
71630;BMP280;59479;51.902;8.212;2024-01-06T11:01:03;100342.66;;;6.61
71630;BMP280;59479;51.902;8.212;2024-01-06T11:03:32;100324.34;;;6.59
71630;BMP280;59479;51.902;8.212;2024-01-06T11:06:00;100336.81;;;6.58
71630;BMP280;59479;51.902;8.212;2024-01-06T11:08:26;100333.31;;;6.47
71630;BMP280;59479;51.902;8.212;2024-01-06T11:10:57;100332.56;;;6.54
71630;BMP280;59479;51.902;8.212;2024-01-06T11:13:26;100329.13;;;6.41
71630;BMP280;59479;51.902;8.212;2024-01-06T11:15:54;100336.66;;;6.46
71630;BMP280;59479;51.902;8.212;2024-01-06T11:21:21;100343.41;;;6.56
71630;BMP280;59479;51.902;8.212;2024-01-06T11:24:14;100330.16;;;6.60
71630;BMP280;59479;51.902;8.212;2024-01-06T11:26:45;100329.38;;;6.64
71630;BMP280;59479;51.902;8.212;2024-01-06T11:29:11;100325.22;;;6.63
71630;BMP280;59479;51.902;8.212;2024-01-06T11:32:47;100335.13;;;6.58
71630;BMP280;59479;51.902;8.212;2024-01-06T11:34:55;100330.91;;;6.53
71630;BMP280;59479;51.902;8.212;2024-01-06T11:37:26;100328.44;;;6.56
71630;BMP280;59479;51.902;8.212;2024-01-06T11:40:00;100330.91;;;6.53
71630;BMP280;59479;51.902;8.212;2024-01-06T11:42:32;100332.53;;;6.48
71630;BMP280;59479;51.902;8.212;2024-01-06T11:45:02;100335.09;;;6.55
71630;BMP280;59479;51.902;8.212;2024-01-06T11:47:27;100336.03;;;6.63
71630;BMP280;59479;51.902;8.212;2024-01-06T11:49:56;100335.22;;;6.67
71630;BMP280;59479;51.902;8.212;2024-01-06T11:52:22;100333.56;;;6.66
71630;BMP280;59479;51.902;8.212;2024-01-06T11:54:48;100341.94;;;6.69
71630;BMP280;59479;51.902;8.212;2024-01-06T11:57:14;100333.59;;;6.68
71630;BMP280;59479;51.902;8.212;2024-01-06T11:59:40;100335.13;;;6.58
71630;BMP280;59479;51.902;8.212;2024-01-06T12:02:10;100351.78;;;6.61
71630;BMP280;59479;51.902;8.212;2024-01-06T12:04:36;100351.78;;;6.61
71630;BMP280;59479;51.902;8.212;2024-01-06T12:07:06;100348.50;;;6.62
71630;BMP280;59479;51.902;8.212;2024-01-06T12:09:32;100347.63;;;6.60
71630;BMP280;59479;51.902;8.212;2024-01-06T12:12:01;100349.38;;;6.67
71630;BMP280;59479;51.902;8.212;2024-01-06T12:14:27;100345.25;;;6.70
71630;BMP280;59479;51.902;8.212;2024-01-06T12:16:52;100342.78;;;6.73
71630;BMP280;59479;51.902;8.212;2024-01-06T12:19:20;100344.53;;;6.81
71630;BMP280;59479;51.902;8.212;2024-01-06T12:21:45;100340.41;;;6.83
71630;BMP280;59479;51.902;8.212;2024-01-06T12:24:18;100353.53;;;6.65
71630;BMP280;59479;51.902;8.212;2024-01-06T12:26:47;100345.19;;;6.66
71630;BMP280;59479;51.902;8.212;2024-01-06T12:29:13;100350.97;;;6.62
71630;BMP280;59479;51.902;8.212;2024-01-06T12:31:39;100356.03;;;6.65
71630;BMP280;59479;51.902;8.212;2024-01-06T12:34:05;100356.00;;;6.63
71630;BMP280;59479;51.902;8.212;2024-01-06T12:36:37;100358.56;;;6.70
71630;BMP280;59479;51.902;8.212;2024-01-06T12:39:03;100354.44;;;6.74
71630;BMP280;59479;51.902;8.212;2024-01-06T12:41:29;100361.94;;;6.72
71630;BMP280;59479;51.902;8.212;2024-01-06T12:43:54;100361.91;;;6.69
71630;BMP280;59479;51.902;8.212;2024-01-06T12:46:19;100364.31;;;6.64
71630;BMP280;59479;51.902;8.212;2024-01-06T12:48:45;100362.53;;;6.54
71630;BMP280;59479;51.902;8.212;2024-01-06T12:51:11;100361.81;;;6.64
71630;BMP280;59479;51.902;8.212;2024-01-06T12:53:36;100368.56;;;6.70
71630;BMP280;59479;51.902;8.212;2024-01-06T12:56:01;100370.25;;;6.71
71630;BMP280;59479;51.902;8.212;2024-01-06T12:58:27;100361.03;;;6.69
71630;BMP280;59479;51.902;8.212;2024-01-06T13:00:52;100368.50;;;6.65
71630;BMP280;59479;51.902;8.212;2024-01-06T13:03:18;100365.22;;;6.68
71630;BMP280;59479;51.902;8.212;2024-01-06T13:05:44;100366.84;;;6.67
71630;BMP280;59479;51.902;8.212;2024-01-06T13:08:10;100365.28;;;6.73
71630;BMP280;59479;51.902;8.212;2024-01-06T13:10:35;100372.66;;;6.64
71630;BMP280;59479;51.902;8.212;2024-01-06T13:13:02;100369.34;;;6.65
71630;BMP280;59479;51.902;8.212;2024-01-06T13:15:27;100365.03;;;6.54
71630;BMP280;59479;51.902;8.212;2024-01-06T13:17:52;100374.31;;;6.64
71630;BMP280;59479;51.902;8.212;2024-01-06T13:20:18;100375.09;;;6.60
71630;BMP280;59479;51.902;8.212;2024-01-06T13:22:43;100376.63;;;6.49
71630;BMP280;59479;51.902;8.212;2024-01-06T13:25:08;100384.25;;;6.58
71630;BMP280;59479;51.902;8.212;2024-01-06T13:27:34;100385.84;;;6.53
71630;BMP280;59479;51.902;8.212;2024-01-06T13:30:00;100390.09;;;6.60
71630;BMP280;59479;51.902;8.212;2024-01-06T13:32:25;100405.88;;;6.59
71630;BMP280;59479;51.902;8.212;2024-01-06T13:34:52;100400.75;;;6.48
71630;BMP280;59479;51.902;8.212;2024-01-06T13:37:21;100404.91;;;6.48
71630;BMP280;59479;51.902;8.212;2024-01-06T13:39:47;100408.22;;;6.47
71630;BMP280;59479;51.902;8.212;2024-01-06T13:42:13;100407.53;;;6.58
71630;BMP280;59479;51.902;8.212;2024-01-06T13:44:38;100407.53;;;6.57
71630;BMP280;59479;51.902;8.212;2024-01-06T13:47:05;100411.69;;;6.56
71630;BMP280;59479;51.902;8.212;2024-01-06T13:49:30;100402.59;;;6.61
71630;BMP280;59479;51.902;8.212;2024-01-06T13:51:56;100414.16;;;6.55
71630;BMP280;59479;51.902;8.212;2024-01-06T13:54:21;100418.41;;;6.62
71630;BMP280;59479;51.902;8.212;2024-01-06T13:56:47;100426.75;;;6.64
71630;BMP280;59479;51.902;8.212;2024-01-06T13:59:12;100423.44;;;6.65
71630;BMP280;59479;51.902;8.212;2024-01-06T14:01:38;100436.59;;;6.53
71630;BMP280;59479;51.902;8.212;2024-01-06T14:04:03;100428.44;;;6.65
71630;BMP280;59479;51.902;8.212;2024-01-06T14:06:30;100439.13;;;6.55
71630;BMP280;59479;51.902;8.212;2024-01-06T14:09:00;100434.06;;;6.50
71630;BMP280;59479;51.902;8.212;2024-01-06T14:11:26;100435.00;;;6.58